Time;durP1;ratioP1;P1;durP2;ratioP2;P2;SDS_P1;SDS_P2;PMS_P1;PMS_P2;Temp;Humidity;BMP_temperature;BMP_pressure;BME280_temperature;BME280_humidity;BME280_pressure;Samples;Min_cycle;Max_cycle;Signal;HPM_P1;HPM_P2
2021/09/21 19:20:31;;;;;;;5.28;2.50;;;10.40;88.00;;;;;;5147623;27;20872;-93
2021/09/21 19:22:57;;;;;;;3.58;2.50;;;10.70;88.10;;;;;;5098800;28;20023;-92
2021/09/21 19:25:23;;;;;;;4.03;2.58;;;10.90;88.90;;;;;;5126141;27;20036;-90
2021/09/21 19:27:49;;;;;;;4.45;2.70;;;11.20;88.60;;;;;;5122449;27;20067;-90
2021/09/21 19:30:19;;;;;;;3.85;2.65;;;11.40;87.40;;;;;;5123475;27;20059;-91
2021/09/21 19:32:46;;;;;;;5.63;2.78;;;11.60;85.90;;;;;;5099895;28;20089;-90
2021/09/21 19:35:15;;;;;;;3.47;2.53;;;11.80;84.80;;;;;;5107137;28;20046;-91
2021/09/21 19:37:56;;;;;;;3.20;2.17;;;11.90;83.70;;;;;;5125412;27;20382;-91
2021/09/21 19:40:25;;;;;;;2.78;2.20;;;12.00;83.20;;;;;;5129667;28;20065;-90
2021/09/21 19:42:54;;;;;;;3.35;2.40;;;12.10;83.70;;;;;;5127319;28;20008;-92
2021/09/21 19:45:22;;;;;;;3.85;2.15;;;12.10;83.50;;;;;;5116647;27;20031;-91
2021/09/21 19:47:49;;;;;;;2.53;2.28;;;12.20;82.70;;;;;;5087861;27;20027;-93
2021/09/21 19:50:19;;;;;;;2.30;2.10;;;12.30;81.90;;;;;;5106431;27;20035;-91
2021/09/21 19:52:46;;;;;;;2.13;1.92;;;12.30;81.30;;;;;;5101745;28;20039;-91
2021/09/21 19:55:12;;;;;;;2.55;2.15;;;12.30;80.80;;;;;;5129700;27;20412;-91
2021/09/21 19:57:38;;;;;;;2.13;1.60;;;12.40;80.40;;;;;;5125521;27;20519;-90
2021/09/21 20:00:08;;;;;;;2.20;2.00;;;12.40;80.00;;;;;;5114001;27;20115;-90
2021/09/21 20:02:37;;;;;;;2.00;1.75;;;12.40;79.60;;;;;;5108839;28;20556;-91
2021/09/21 20:05:05;;;;;;;1.75;1.65;;;12.40;79.40;;;;;;5108105;28;20023;-91
2021/09/21 20:07:31;;;;;;;2.55;2.00;;;12.40;79.10;;;;;;5113941;27;20073;-90
2021/09/21 20:09:58;;;;;;;2.25;1.77;;;12.40;79.00;;;;;;5090071;28;20031;-91
2021/09/21 20:12:25;;;;;;;3.05;1.83;;;12.40;78.70;;;;;;5140790;27;20088;-91
2021/09/21 20:14:51;;;;;;;2.05;1.85;;;12.40;78.60;;;;;;5127133;28;20031;-92
2021/09/21 20:17:17;;;;;;;2.88;1.70;;;12.40;78.30;;;;;;5106468;28;20031;-91
2021/09/21 20:19:44;;;;;;;1.80;1.70;;;12.40;78.20;;;;;;5119477;28;20050;-90
2021/09/21 20:22:10;;;;;;;2.08;1.83;;;12.50;78.10;;;;;;5101843;28;20633;-92
2021/09/21 20:24:39;;;;;;;3.95;2.13;;;12.50;78.00;;;;;;5111146;28;20057;-91
2021/09/21 20:27:06;;;;;;;3.45;1.88;;;12.50;77.80;;;;;;5119560;28;20032;-92
2021/09/21 20:29:33;;;;;;;1.55;1.45;;;12.50;77.70;;;;;;5096526;28;20438;-91
2021/09/21 20:32:02;;;;;;;3.55;1.88;;;12.50;77.70;;;;;;5097611;28;21119;-92
2021/09/21 20:34:39;;;;;;;2.83;1.60;;;12.50;77.60;;;;;;5096446;28;20022;-93
2021/09/21 20:39:45;;;;;;;1.65;1.55;;;12.50;77.50;;;;;;5144948;27;20041;-92
2021/09/21 20:42:12;;;;;;;1.63;1.52;;;12.50;77.40;;;;;;5097652;28;20036;-92
2021/09/21 20:44:38;;;;;;;2.00;1.60;;;12.50;77.30;;;;;;5100148;27;20031;-92
2021/09/21 20:47:04;;;;;;;1.42;1.20;;;12.50;77.20;;;;;;5077887;28;20028;-90
2021/09/21 20:49:30;;;;;;;2.47;1.58;;;12.50;77.10;;;;;;5070125;28;20035;-91
2021/09/21 20:51:59;;;;;;;1.60;1.45;;;12.50;77.10;;;;;;5120410;27;20074;-90
2021/09/21 20:54:29;;;;;;;1.65;1.33;;;12.50;77.10;;;;;;5094942;28;20038;-90
2021/09/21 20:56:55;;;;;;;2.05;1.30;;;12.50;77.00;;;;;;5088242;28;20028;-90
2021/09/21 20:59:22;;;;;;;2.38;1.88;;;12.50;76.90;;;;;;5086619;28;20039;-89
2021/09/21 21:01:48;;;;;;;1.55;1.38;;;12.50;76.80;;;;;;5115193;27;20032;-90
2021/09/21 21:04:21;;;;;;;2.55;1.60;;;12.50;76.70;;;;;;5106138;27;20038;-90
2021/09/21 21:06:50;;;;;;;1.83;1.20;;;12.50;76.70;;;;;;5090525;27;20058;-89
2021/09/21 21:09:17;;;;;;;1.63;1.27;;;12.50;76.60;;;;;;5119967;27;20119;-89
2021/09/21 21:11:43;;;;;;;1.45;1.35;;;12.50;76.60;;;;;;5102676;28;20027;-88
2021/09/21 21:14:09;;;;;;;3.22;1.30;;;12.50;76.60;;;;;;5104206;28;20028;-89
2021/09/21 21:16:35;;;;;;;1.48;1.25;;;12.50;76.60;;;;;;5105091;27;20494;-89
2021/09/21 21:19:01;;;;;;;1.40;1.30;;;12.50;76.50;;;;;;5075538;28;20070;-89
2021/09/21 21:21:27;;;;;;;1.00;1.00;;;12.50;76.50;;;;;;5104723;28;20537;-90
2021/09/21 21:23:53;;;;;;;1.30;1.17;;;12.50;76.50;;;;;;5089421;28;20495;-90
2021/09/21 21:26:19;;;;;;;1.30;1.20;;;12.50;76.40;;;;;;5091476;27;20023;-89
2021/09/21 21:28:45;;;;;;;1.65;1.30;;;12.50;76.30;;;;;;5081249;28;20118;-89
2021/09/21 21:31:11;;;;;;;1.65;1.40;;;12.50;76.30;;;;;;5125802;27;20040;-91
2021/09/21 21:33:38;;;;;;;1.15;1.05;;;12.50;76.30;;;;;;5123581;28;20035;-89
2021/09/21 21:36:05;;;;;;;1.00;1.00;;;12.50;76.30;;;;;;5106832;27;20032;-90
2021/09/21 21:38:31;;;;;;;0.95;0.95;;;12.50;76.20;;;;;;5091167;28;20093;-91
2021/09/21 21:40:57;;;;;;;1.02;0.93;;;12.50;76.20;;;;;;5108377;27;20066;-89
2021/09/21 21:43:23;;;;;;;1.33;1.20;;;12.50;76.10;;;;;;5104536;28;20027;-89
2021/09/21 21:45:50;;;;;;;1.83;0.90;;;12.50;76.10;;;;;;5089851;28;20110;-89
2021/09/21 21:48:18;;;;;;;1.38;1.27;;;12.40;76.00;;;;;;5103592;28;20066;-90
2021/09/21 21:50:44;;;;;;;0.90;0.80;;;12.40;76.00;;;;;;5072771;27;20081;-89
2021/09/21 21:53:10;;;;;;;1.20;1.10;;;12.40;76.00;;;;;;5088912;27;20039;-89
2021/09/21 21:55:36;;;;;;;1.70;1.20;;;12.40;76.00;;;;;;5102461;28;20028;-89
2021/09/21 21:58:02;;;;;;;1.10;1.10;;;12.40;76.10;;;;;;5089261;28;20086;-92
2021/09/21 22:00:31;;;;;;;1.38;1.00;;;12.40;76.10;;;;;;5120061;27;20473;-93
2021/09/21 22:02:58;;;;;;;1.25;1.13;;;12.40;76.10;;;;;;5124205;27;20034;-93
2021/09/21 22:05:25;;;;;;;2.55;1.10;;;12.50;76.10;;;;;;5104896;28;20032;-92
2021/09/21 22:07:52;;;;;;;1.00;1.00;;;12.50;76.10;;;;;;5107677;28;20059;-92
2021/09/21 22:10:20;;;;;;;1.95;1.35;;;12.40;76.00;;;;;;5102090;28;20043;-92
2021/09/21 22:12:47;;;;;;;1.15;1.05;;;12.40;76.60;;;;;;5103238;28;20520;-90
2021/09/21 22:15:13;;;;;;;1.85;1.10;;;12.40;76.00;;;;;;5104424;28;20411;-91
2021/09/21 22:17:39;;;;;;;0.75;0.75;;;12.40;75.90;;;;;;5090237;28;20032;-92
2021/09/21 22:20:10;;;;;;;1.10;1.00;;;12.40;76.00;;;;;;5106527;28;20503;-90
2021/09/21 22:22:36;;;;;;;1.05;0.95;;;12.40;75.90;;;;;;5091988;28;20019;-88
2021/09/21 22:25:03;;;;;;;0.70;0.70;;;12.40;75.80;;;;;;5111950;28;20034;-86
2021/09/21 22:27:29;;;;;;;1.17;0.90;;;12.50;75.80;;;;;;5107234;28;20041;-90
2021/09/21 22:29:55;;;;;;;0.93;0.93;;;12.40;75.70;;;;;;5087176;28;20428;-88
2021/09/21 22:32:21;;;;;;;1.15;0.98;;;12.50;75.80;;;;;;5088969;28;20038;-88
2021/09/21 22:34:47;;;;;;;0.85;0.85;;;12.40;75.70;;;;;;5087904;28;20035;-88
2021/09/21 22:37:13;;;;;;;1.20;1.10;;;12.40;75.70;;;;;;5105293;28;20031;-88
2021/09/21 22:39:39;;;;;;;1.33;0.95;;;12.40;75.70;;;;;;5107099;27;20050;-89
2021/09/21 22:42:05;;;;;;;1.08;0.90;;;12.40;75.70;;;;;;5087385;28;21273;-89
2021/09/21 22:44:31;;;;;;;0.93;0.93;;;12.40;75.60;;;;;;5087872;28;20574;-88
2021/09/21 22:46:58;;;;;;;1.13;1.02;;;12.40;75.70;;;;;;5104979;28;20110;-89
2021/09/21 22:49:25;;;;;;;0.80;0.80;;;12.40;75.60;;;;;;5104785;28;20395;-89
2021/09/21 22:51:50;;;;;;;1.08;0.80;;;12.40;75.60;;;;;;5087745;28;20032;-90
2021/09/21 22:54:16;;;;;;;0.80;0.80;;;12.40;75.60;;;;;;5084549;28;20034;-90
2021/09/21 22:56:42;;;;;;;0.75;0.75;;;12.40;75.60;;;;;;5082486;28;20034;-89
2021/09/21 22:59:08;;;;;;;1.77;0.70;;;12.40;75.70;;;;;;5100546;28;20027;-89
2021/09/21 23:01:34;;;;;;;1.98;0.88;;;12.40;75.60;;;;;;5103938;28;20466;-89
2021/09/21 23:04:05;;;;;;;0.85;0.77;;;12.40;75.50;;;;;;5087559;28;20031;-89
2021/09/21 23:06:31;;;;;;;0.85;0.80;;;12.40;75.60;;;;;;5088900;28;20028;-88
2021/09/21 23:08:58;;;;;;;1.20;0.85;;;12.40;75.50;;;;;;5102255;28;20035;-88
2021/09/21 23:11:25;;;;;;;0.60;0.60;;;12.40;75.50;;;;;;5087782;28;20040;-88
2021/09/21 23:13:51;;;;;;;0.60;0.50;;;12.40;75.50;;;;;;5100137;28;20028;-89
2021/09/21 23:16:17;;;;;;;0.57;0.55;;;12.40;75.60;;;;;;5113370;28;20028;-88
2021/09/21 23:18:43;;;;;;;0.63;0.63;;;12.40;75.50;;;;;;5088775;28;20044;-89
2021/09/21 23:21:08;;;;;;;0.82;0.80;;;12.40;75.50;;;;;;5126760;28;20035;-91
2021/09/21 23:23:34;;;;;;;0.75;0.75;;;12.40;76.10;;;;;;5108975;28;20049;-92
2021/09/21 23:26:00;;;;;;;0.88;0.82;;;12.40;75.60;;;;;;5089665;28;20031;-92
2021/09/21 23:28:28;;;;;;;0.60;0.52;;;12.40;75.60;;;;;;5105210;28;20050;-93
2021/09/21 23:30:54;;;;;;;0.93;0.90;;;12.40;75.60;;;;;;5105616;28;20055;-93
2021/09/21 23:33:21;;;;;;;1.35;1.10;;;12.40;75.70;;;;;;5102909;28;20027;-90
2021/09/21 23:35:46;;;;;;;1.08;0.60;;;12.40;75.70;;;;;;5100292;28;20061;-89
2021/09/21 23:38:12;;;;;;;0.80;0.80;;;12.40;75.60;;;;;;5103986;28;20035;-89
2021/09/21 23:40:39;;;;;;;0.95;0.80;;;12.40;75.70;;;;;;5088039;28;20023;-89
2021/09/21 23:43:07;;;;;;;0.68;0.68;;;12.40;75.70;;;;;;5102206;28;20024;-89
2021/09/21 23:45:34;;;;;;;0.77;0.77;;;12.40;75.70;;;;;;5087826;28;20053;-89
2021/09/21 23:48:01;;;;;;;3.63;0.80;;;12.40;75.60;;;;;;5099012;28;20096;-89
2021/09/21 23:50:27;;;;;;;0.85;0.80;;;12.40;75.60;;;;;;5101599;28;20027;-90
2021/09/21 23:52:53;;;;;;;0.85;0.70;;;12.30;75.40;;;;;;5104280;28;20520;-91
2021/09/21 23:55:24;;;;;;;1.10;0.98;;;12.40;75.50;;;;;;5070743;28;20036;-90
2021/09/21 23:57:52;;;;;;;0.60;0.60;;;12.40;75.50;;;;;;5104128;28;20036;-90
